createdAt,value
2018-10-21T00:00:39.228Z,97.37
2018-10-21T00:03:09.288Z,96.31
2018-10-21T00:05:38.324Z,96.78
2018-10-21T00:08:12.831Z,97.12
2018-10-21T00:10:42.620Z,97.57
2018-10-21T00:13:11.493Z,97.59
2018-10-21T00:15:41.347Z,97.26
2018-10-21T00:18:11.421Z,95.29
2018-10-21T00:20:41.352Z,97.20
2018-10-21T00:23:11.357Z,98.75
2018-10-21T00:25:40.776Z,95.81
2018-10-21T00:28:10.801Z,93.78
2018-10-21T00:30:39.560Z,95.52
2018-10-21T00:33:09.726Z,95.69
2018-10-21T00:35:38.325Z,97.89
2018-10-21T00:38:08.290Z,98.14
2018-10-21T00:40:38.528Z,96.14
2018-10-21T00:43:07.857Z,96.47
2018-10-21T00:45:37.126Z,95.61
2018-10-21T00:48:05.946Z,94.71
2018-10-21T00:50:34.508Z,96.33
2018-10-21T00:53:03.264Z,97.30
2018-10-21T00:55:32.748Z,96.28
2018-10-21T00:58:03.052Z,94.52
2018-10-21T01:00:32.472Z,95.28
2018-10-21T01:03:01.413Z,96.69
2018-10-21T01:05:35.491Z,96.50
2018-10-21T01:08:08.357Z,94.74
2018-10-21T01:10:38.435Z,94.11
2018-10-21T01:13:07.193Z,95.73
2018-10-21T01:15:37.389Z,96.00
2018-10-21T01:18:07.429Z,97.16
2018-10-21T01:20:37.916Z,96.58
2018-10-21T01:23:07.105Z,97.44
2018-10-21T01:25:36.389Z,100.00
2018-10-21T01:28:05.188Z,99.75
2018-10-21T01:30:34.615Z,98.79
2018-10-21T01:33:03.600Z,100.00
2018-10-21T01:35:33.156Z,98.76
2018-10-21T01:38:02.613Z,96.89
2018-10-21T01:40:35.277Z,98.88
2018-10-21T01:43:04.589Z,97.70
2018-10-21T01:45:35.566Z,99.37
2018-10-21T01:48:06.791Z,98.04
2018-10-21T01:50:36.557Z,96.59
2018-10-21T01:53:08.843Z,97.70
2018-10-21T01:55:38.263Z,100.00
2018-10-21T01:58:08.278Z,97.86
2018-10-21T02:00:40.030Z,97.54
2018-10-21T02:03:08.616Z,95.75
2018-10-21T02:05:37.635Z,95.19
2018-10-21T02:08:06.452Z,96.28
2018-10-21T02:10:35.013Z,96.36
2018-10-21T02:13:03.622Z,98.66
2018-10-21T02:15:32.184Z,97.06
2018-10-21T02:18:00.713Z,96.61
2018-10-21T02:20:29.348Z,96.81
2018-10-21T02:22:57.921Z,98.41
2018-10-21T02:25:26.495Z,99.40
2018-10-21T02:27:55.152Z,99.28
2018-10-21T02:30:28.648Z,98.29
2018-10-21T02:32:58.071Z,99.93
2018-10-21T02:35:26.628Z,100.00
2018-10-21T02:37:55.649Z,100.00
2018-10-21T02:41:38.446Z,100.00
2018-10-21T02:44:16.913Z,100.00
2018-10-21T02:46:46.112Z,100.00
2018-10-21T02:49:15.378Z,100.00
2018-10-21T02:51:44.068Z,100.00
2018-10-21T02:54:12.613Z,100.00
2018-10-21T02:56:41.187Z,100.00
2018-10-21T02:59:09.712Z,100.00
2018-10-21T03:01:38.293Z,100.00
2018-10-21T03:04:06.817Z,100.00
2018-10-21T03:06:35.700Z,100.00
2018-10-21T03:09:05.760Z,100.00
2018-10-21T03:11:34.278Z,100.00
2018-10-21T03:14:02.927Z,100.00
2018-10-21T03:16:31.513Z,100.00
2018-10-21T03:19:00.053Z,100.00
2018-10-21T03:21:28.649Z,100.00
2018-10-21T03:23:57.178Z,100.00
2018-10-21T03:26:25.821Z,100.00
2018-10-21T03:28:54.340Z,100.00
2018-10-21T03:31:22.911Z,100.00
2018-10-21T03:33:51.905Z,99.81
2018-10-21T03:36:20.498Z,100.00
2018-10-21T03:38:49.021Z,100.00
2018-10-21T03:41:17.571Z,98.20
2018-10-21T03:43:46.090Z,97.80
2018-10-21T03:46:15.605Z,98.33
2018-10-21T03:48:44.201Z,99.72
2018-10-21T03:51:13.383Z,100.00
2018-10-21T03:53:42.128Z,100.00
2018-10-21T03:56:10.787Z,100.00
2018-10-21T03:58:39.635Z,99.87
2018-10-21T04:01:08.912Z,100.00
2018-10-21T04:03:37.486Z,100.00
2018-10-21T04:06:06.159Z,99.28
2018-10-21T04:08:34.709Z,100.00
2018-10-21T04:11:03.266Z,100.00
2018-10-21T04:13:31.787Z,100.00
2018-10-21T04:16:00.414Z,100.00
2018-10-21T04:18:28.912Z,100.00
2018-10-21T04:20:57.501Z,100.00
2018-10-21T04:23:26.029Z,100.00
2018-10-21T04:25:55.081Z,100.00
2018-10-21T04:28:23.607Z,100.00
2018-10-21T04:30:52.168Z,100.00
2018-10-21T04:36:17.660Z,98.92
2018-10-21T04:40:08.559Z,97.88
2018-10-21T04:42:37.094Z,99.82
2018-10-21T04:45:06.273Z,100.00
2018-10-21T04:47:34.844Z,98.64
2018-10-21T04:50:03.394Z,97.58
2018-10-21T04:52:32.793Z,97.06
2018-10-21T04:55:06.538Z,97.81
2018-10-21T04:57:35.957Z,98.05
2018-10-21T05:00:05.364Z,96.98
2018-10-21T05:02:33.925Z,95.90
2018-10-21T05:05:02.492Z,94.79
2018-10-21T05:07:31.261Z,95.32
2018-10-21T05:09:59.811Z,95.64
2018-10-21T05:12:28.374Z,96.27
2018-10-21T05:14:56.900Z,94.58
2018-10-21T05:17:25.497Z,98.53
2018-10-21T05:19:54.042Z,97.74
2018-10-21T05:22:22.601Z,99.88
2018-10-21T05:24:51.137Z,98.21
2018-10-21T05:27:19.709Z,95.64
2018-10-21T05:29:48.239Z,95.97
2018-10-21T05:32:16.795Z,95.15
2018-10-21T05:34:45.326Z,96.12
2018-10-21T05:37:13.891Z,97.62
2018-10-21T05:39:42.410Z,98.49
2018-10-21T05:42:11.496Z,98.02
2018-10-21T05:44:40.393Z,98.67
2018-10-21T05:47:10.060Z,99.12
2018-10-21T05:49:38.748Z,98.70
2018-10-21T05:52:07.708Z,98.25
2018-10-21T05:54:40.383Z,96.20
2018-10-21T05:57:08.949Z,95.08
2018-10-21T05:59:37.541Z,97.95
2018-10-21T06:02:06.239Z,100.00
2018-10-21T06:04:34.774Z,98.54
2018-10-21T06:07:03.381Z,97.24
2018-10-21T06:09:31.905Z,98.56
2018-10-21T06:12:00.458Z,98.93
2018-10-21T06:14:29.033Z,99.37
2018-10-21T06:17:14.056Z,100.00
2018-10-21T06:19:45.995Z,98.60
2018-10-21T06:22:16.289Z,98.22
2018-10-21T06:24:49.029Z,98.14
2018-10-21T06:27:18.019Z,98.56
2018-10-21T06:29:46.568Z,98.45
2018-10-21T06:32:15.217Z,99.08
2018-10-21T06:34:43.772Z,99.00
2018-10-21T06:37:14.237Z,98.79
2018-10-21T06:39:42.935Z,97.37
2018-10-21T06:42:11.467Z,97.85
2018-10-21T06:44:40.573Z,97.67
2018-10-21T06:47:09.809Z,97.14
2018-10-21T06:49:38.629Z,96.43
2018-10-21T06:52:14.469Z,97.37
2018-10-21T06:54:43.285Z,96.97
2018-10-21T06:57:11.945Z,98.10
2018-10-21T06:59:40.428Z,97.38
2018-10-21T07:02:10.673Z,96.77
2018-10-21T07:04:39.313Z,97.42
2018-10-21T07:07:07.809Z,98.05
2018-10-21T07:09:37.349Z,97.90
2018-10-21T07:12:06.626Z,97.08
2018-10-21T07:14:35.297Z,97.94
2018-10-21T07:17:04.129Z,97.95
2018-10-21T07:19:32.979Z,98.71
2018-10-21T07:22:01.569Z,97.88
2018-10-21T07:24:30.128Z,96.88
2018-10-21T07:26:58.696Z,95.62
2018-10-21T07:29:27.381Z,96.42
2018-10-21T07:31:56.165Z,95.28
2018-10-21T07:34:24.752Z,95.49
2018-10-21T07:36:54.805Z,96.47
2018-10-21T07:39:23.827Z,97.68
2018-10-21T07:41:52.494Z,96.53
2018-10-21T07:44:21.071Z,97.06
2018-10-21T07:46:50.340Z,95.55
2018-10-21T07:49:18.998Z,95.20
2018-10-21T07:51:48.073Z,95.71
2018-10-21T07:54:16.976Z,94.71
2018-10-21T07:56:45.576Z,95.66
2018-10-21T07:59:14.814Z,95.62
2018-10-21T08:01:43.441Z,95.36
2018-10-21T08:04:12.254Z,95.82
2018-10-21T08:06:52.429Z,94.60
2018-10-21T08:09:21.105Z,94.67
2018-10-21T08:11:49.641Z,94.48
2018-10-21T08:14:18.206Z,94.67
2018-10-21T08:16:46.728Z,94.81
2018-10-21T08:19:15.293Z,94.17
2018-10-21T08:21:43.856Z,93.57
2018-10-21T08:24:12.428Z,93.14
2018-10-21T08:26:40.968Z,92.71
2018-10-21T08:29:09.545Z,92.35
2018-10-21T08:31:38.076Z,90.51
2018-10-21T08:34:06.620Z,89.94
2018-10-21T08:36:35.181Z,89.41
2018-10-21T08:39:05.893Z,89.03
2018-10-21T08:41:34.453Z,89.28
2018-10-21T08:44:02.984Z,88.60
2018-10-21T08:46:32.270Z,88.07
2018-10-21T08:49:01.131Z,87.37
2018-10-21T08:51:30.149Z,87.35
2018-10-21T08:53:59.709Z,87.23
2018-10-21T08:56:30.382Z,86.99
2018-10-21T08:58:59.717Z,86.25
2018-10-21T09:01:28.715Z,86.08
2018-10-21T09:03:57.304Z,86.38
2018-10-21T09:06:25.972Z,85.09
2018-10-21T09:08:54.513Z,84.59
2018-10-21T09:11:23.801Z,83.48
2018-10-21T09:13:52.489Z,82.81
2018-10-21T09:16:22.452Z,81.27
2018-10-21T09:18:51.177Z,81.50
2018-10-21T09:21:20.917Z,81.27
2018-10-21T09:23:49.546Z,81.07
2018-10-21T09:26:18.801Z,80.51
2018-10-21T09:28:48.320Z,79.50
2018-10-21T09:31:17.323Z,79.39
2018-10-21T09:33:46.133Z,78.94
2018-10-21T09:36:14.776Z,78.97
2018-10-21T09:38:43.519Z,78.52
2018-10-21T09:41:12.265Z,77.60
2018-10-21T09:43:42.525Z,77.04
2018-10-21T09:46:11.872Z,76.52
2018-10-21T09:48:41.064Z,75.81
2018-10-21T09:51:09.632Z,75.66
2018-10-21T09:53:38.212Z,75.23
2018-10-21T09:56:06.823Z,75.11
2018-10-21T09:58:36.274Z,75.59
2018-10-21T10:01:10.098Z,74.53
2018-10-21T10:03:38.848Z,73.68
2018-10-21T10:06:08.437Z,72.88
2018-10-21T10:08:37.252Z,72.91
2018-10-21T10:11:12.611Z,71.81
2018-10-21T10:13:41.632Z,71.11
2018-10-21T10:16:10.396Z,71.21
2018-10-21T10:18:39.572Z,71.04
2018-10-21T10:21:08.236Z,70.29
2018-10-21T10:23:36.870Z,70.83
2018-10-21T10:26:06.872Z,70.13
2018-10-21T10:28:35.412Z,69.29
2018-10-21T10:31:04.363Z,68.95
2018-10-21T10:33:32.831Z,68.00
2018-10-21T10:36:03.983Z,67.41
2018-10-21T10:38:32.681Z,67.18
2018-10-21T10:41:01.201Z,67.23
2018-10-21T10:43:30.936Z,67.56
2018-10-21T10:45:59.753Z,67.01
2018-10-21T10:48:28.604Z,65.73
2018-10-21T10:50:57.359Z,65.53
2018-10-21T10:53:25.993Z,64.79
2018-10-21T10:55:55.543Z,64.52
2018-10-21T10:58:24.819Z,64.66
2018-10-21T11:00:53.433Z,63.87
2018-10-21T11:03:21.988Z,63.62
2018-10-21T11:05:51.272Z,63.01
2018-10-21T11:08:21.335Z,62.79
2018-10-21T11:10:50.101Z,62.62
2018-10-21T11:13:19.176Z,61.91
2018-10-21T11:15:49.205Z,61.14
2018-10-21T11:18:17.773Z,60.34
2018-10-21T11:20:46.496Z,60.81
2018-10-21T11:23:15.102Z,60.92
2018-10-21T11:25:45.359Z,61.12
2018-10-21T11:28:13.960Z,58.88
2018-10-21T11:30:42.488Z,59.75
2018-10-21T11:33:11.076Z,59.46
2018-10-21T11:35:39.665Z,59.27
2018-10-21T11:38:08.261Z,58.77
2018-10-21T11:40:36.808Z,59.09
2018-10-21T11:43:05.627Z,57.74
2018-10-21T11:45:34.204Z,58.15
2018-10-21T11:48:04.724Z,56.58
2018-10-21T11:50:33.392Z,55.62
2018-10-21T11:53:03.005Z,55.09
2018-10-21T11:55:37.461Z,55.54
2018-10-21T11:58:11.352Z,55.09
2018-10-21T12:01:01.706Z,54.74
2018-10-21T12:03:36.015Z,54.41
2018-10-21T12:06:05.105Z,53.24
2018-10-21T12:08:33.667Z,52.86
2018-10-21T12:11:10.474Z,52.60
2018-10-21T12:13:39.211Z,53.37
2018-10-21T12:16:07.763Z,53.57
2018-10-21T12:18:50.733Z,52.52
2018-10-21T12:21:19.600Z,52.43
2018-10-21T12:23:48.157Z,52.46
2018-10-21T12:26:16.709Z,52.93
2018-10-21T12:28:47.414Z,53.61
2018-10-21T12:31:16.556Z,52.51
2018-10-21T12:33:45.435Z,52.14
2018-10-21T12:36:15.757Z,52.77
2018-10-21T12:38:44.361Z,52.80
2018-10-21T12:41:13.498Z,51.83
2018-10-21T12:43:42.541Z,51.73
2018-10-21T12:46:12.373Z,52.52
2018-10-21T12:48:42.075Z,51.01
2018-10-21T12:51:12.893Z,51.86
2018-10-21T12:53:41.631Z,51.53
2018-10-21T12:56:10.572Z,51.47
2018-10-21T12:58:39.887Z,50.73
2018-10-21T13:01:08.908Z,51.27
2018-10-21T13:03:38.657Z,50.84
2018-10-21T13:06:07.306Z,51.14
2018-10-21T13:08:36.772Z,50.49
2018-10-21T13:11:05.458Z,50.54
2018-10-21T13:13:34.341Z,49.99
2018-10-21T13:16:02.972Z,50.04
2018-10-21T13:18:31.521Z,50.05
2018-10-21T13:21:00.135Z,49.49
2018-10-21T13:23:28.701Z,49.96
2018-10-21T13:25:59.175Z,49.57
2018-10-21T13:28:27.945Z,49.22
2018-10-21T13:30:56.305Z,49.39
2018-10-21T13:33:24.878Z,48.71
2018-10-21T13:35:53.435Z,48.86
2018-10-21T13:38:21.975Z,49.42
2018-10-21T13:40:50.561Z,48.81
2018-10-21T13:43:19.998Z,48.40
2018-10-21T13:45:48.638Z,48.40
2018-10-21T13:48:17.129Z,48.10
2018-10-21T13:50:45.688Z,48.52
2018-10-21T13:53:14.278Z,48.57
2018-10-21T13:55:42.837Z,48.67
2018-10-21T13:58:11.423Z,47.70
2018-10-21T14:00:40.011Z,47.91
2018-10-21T14:03:09.478Z,48.06
2018-10-21T14:05:38.053Z,47.78
2018-10-21T14:08:07.072Z,47.32
2018-10-21T14:10:35.633Z,47.23
2018-10-21T14:13:06.772Z,47.55
2018-10-21T14:15:35.446Z,46.82
2018-10-21T14:18:04.031Z,46.67
2018-10-21T14:20:32.629Z,45.71
2018-10-21T14:23:01.160Z,45.82
2018-10-21T14:25:29.709Z,44.35
2018-10-21T14:27:58.656Z,44.37
2018-10-21T14:30:27.951Z,44.32
2018-10-21T14:32:56.511Z,43.91
2018-10-21T14:35:25.126Z,43.14
2018-10-21T14:37:54.744Z,42.52
2018-10-21T14:40:28.221Z,42.94
2018-10-21T14:43:01.087Z,40.70
2018-10-21T14:48:25.696Z,40.12
2018-10-21T14:51:19.562Z,39.31
2018-10-21T14:54:20.981Z,39.74
2018-10-21T14:57:09.378Z,39.09
2018-10-21T15:00:03.388Z,38.51
2018-10-21T15:02:36.393Z,39.59
2018-10-21T15:05:26.496Z,38.24
2018-10-21T15:08:04.009Z,39.84
2018-10-21T15:10:43.129Z,39.20
2018-10-21T15:13:24.073Z,40.02
2018-10-21T15:15:53.545Z,40.05
2018-10-21T15:18:22.293Z,40.70
2018-10-21T15:20:50.886Z,40.90
2018-10-21T15:23:19.495Z,40.99
2018-10-21T15:25:48.009Z,42.28
2018-10-21T15:28:16.661Z,41.92
2018-10-21T15:30:45.161Z,43.01
2018-10-21T15:33:13.680Z,42.97
2018-10-21T15:35:42.230Z,43.15
2018-10-21T15:38:10.816Z,43.84
2018-10-21T15:40:39.333Z,43.65
2018-10-21T15:43:07.866Z,43.78
2018-10-21T15:45:36.570Z,44.32
2018-10-21T15:48:05.268Z,44.19
2018-10-21T15:50:34.340Z,45.32
2018-10-21T15:53:03.024Z,45.43
2018-10-21T15:55:31.641Z,44.72
2018-10-21T15:58:03.308Z,44.83
2018-10-21T16:00:31.860Z,45.44
2018-10-21T16:03:00.413Z,44.77
2018-10-21T16:05:29.268Z,45.51
2018-10-21T16:07:57.865Z,46.52
2018-10-21T16:10:26.358Z,46.27
2018-10-21T16:12:55.026Z,46.86
2018-10-21T16:15:23.551Z,46.79
2018-10-21T16:17:52.121Z,47.95
2018-10-21T16:20:20.637Z,48.55
2018-10-21T16:22:49.404Z,49.80
2018-10-21T16:25:18.230Z,50.23
2018-10-21T16:27:46.838Z,52.17
2018-10-21T16:30:16.616Z,53.16
2018-10-21T16:32:45.663Z,53.14
2018-10-21T16:35:14.520Z,53.60
2018-10-21T16:37:43.553Z,54.41
2018-10-21T16:40:15.034Z,54.44
2018-10-21T16:42:43.958Z,55.53
2018-10-21T16:45:13.504Z,55.78
2018-10-21T16:47:42.165Z,56.48
2018-10-21T16:50:16.438Z,56.05
2018-10-21T16:52:46.371Z,57.43
2018-10-21T16:55:17.388Z,59.70
2018-10-21T16:57:47.307Z,61.39
2018-10-21T17:00:20.232Z,62.19
2018-10-21T17:02:48.893Z,61.95
2018-10-21T17:05:17.488Z,63.46
2018-10-21T17:07:46.043Z,63.58
2018-10-21T17:10:14.915Z,63.49
2018-10-21T17:12:43.160Z,64.53
2018-10-21T17:15:12.231Z,63.04
2018-10-21T17:17:41.500Z,63.59
2018-10-21T17:20:11.807Z,64.73
2018-10-21T17:22:41.189Z,64.85
2018-10-21T17:25:09.819Z,66.12
2018-10-21T17:27:38.385Z,66.69
2018-10-21T17:30:09.702Z,69.41
2018-10-21T17:32:38.360Z,72.73
2018-10-21T17:35:07.709Z,70.58
2018-10-21T17:37:36.265Z,73.37
2018-10-21T17:40:04.922Z,74.99
2018-10-21T17:42:35.725Z,73.40
2018-10-21T17:45:10.872Z,74.12
2018-10-21T17:47:39.644Z,74.43
2018-10-21T17:50:11.636Z,75.26
2018-10-21T17:52:41.945Z,73.76
2018-10-21T17:55:10.554Z,73.33
2018-10-21T17:57:39.245Z,74.15
2018-10-21T18:00:09.503Z,74.27
2018-10-21T18:02:38.631Z,75.18
2018-10-21T18:05:11.945Z,76.86
2018-10-21T18:07:41.094Z,77.01
2018-10-21T18:10:10.060Z,79.06
2018-10-21T18:12:38.741Z,80.66
2018-10-21T18:15:08.252Z,80.62
2018-10-21T18:17:38.266Z,83.18
2018-10-21T18:20:08.257Z,79.75
2018-10-21T18:22:36.834Z,77.71
2018-10-21T18:25:05.851Z,76.37
2018-10-21T18:27:34.444Z,76.21
2018-10-21T18:30:03.345Z,78.59
2018-10-21T18:32:32.031Z,82.28
2018-10-21T18:35:00.920Z,82.33
2018-10-21T18:37:29.565Z,84.45
2018-10-21T18:39:58.286Z,84.59
2018-10-21T18:42:26.855Z,86.10
2018-10-21T18:44:55.653Z,86.37
2018-10-21T18:47:27.678Z,84.57
2018-10-21T18:49:56.316Z,86.52
2018-10-21T18:52:26.065Z,84.90
2018-10-21T18:54:55.496Z,83.69
2018-10-21T18:57:24.053Z,81.98
2018-10-21T18:59:52.638Z,81.96
2018-10-21T19:02:23.189Z,82.92
2018-10-21T19:04:53.765Z,84.33
2018-10-21T19:07:24.027Z,85.39
2018-10-21T19:09:52.668Z,86.69
2018-10-21T19:12:25.957Z,85.45
2018-10-21T19:15:01.375Z,85.32
2018-10-21T19:17:33.144Z,86.24
2018-10-21T19:20:01.717Z,85.45
2018-10-21T19:22:30.853Z,86.28
2018-10-21T19:24:59.433Z,87.29
2018-10-21T19:27:27.955Z,88.89
2018-10-21T19:29:56.519Z,92.13
2018-10-21T19:32:25.068Z,93.70
2018-10-21T19:34:53.693Z,89.98
2018-10-21T19:37:22.630Z,88.11
2018-10-21T19:39:51.393Z,86.87
2018-10-21T19:42:19.910Z,87.35
2018-10-21T19:44:48.473Z,87.91
2018-10-21T19:47:17.261Z,89.13
2018-10-21T19:49:47.083Z,89.43
2018-10-21T19:52:15.766Z,90.04
2018-10-21T19:54:46.442Z,89.40
2018-10-21T19:57:15.289Z,88.05
2018-10-21T19:59:44.829Z,89.06
2018-10-21T20:02:18.474Z,92.00
2018-10-21T20:04:47.089Z,92.86
2018-10-21T20:07:16.296Z,91.93
2018-10-21T20:09:45.494Z,92.35
2018-10-21T20:12:14.281Z,92.36
2018-10-21T20:14:42.864Z,92.12
2018-10-21T20:17:16.195Z,90.41
2018-10-21T20:19:45.277Z,86.61
2018-10-21T20:22:17.830Z,86.52
2018-10-21T20:24:46.392Z,86.75
2018-10-21T20:27:15.042Z,88.40
2018-10-21T20:29:44.898Z,90.04
2018-10-21T20:32:14.685Z,91.88
2018-10-21T20:34:44.301Z,94.33
2018-10-21T20:37:13.216Z,94.55
2018-10-21T20:39:41.798Z,92.38
2018-10-21T20:42:10.685Z,93.62
2018-10-21T20:44:39.260Z,94.44
2018-10-21T20:47:07.785Z,94.10
2018-10-21T20:49:36.365Z,93.40
2018-10-21T20:52:05.305Z,93.66
2018-10-21T20:54:39.112Z,95.43
2018-10-21T20:57:09.037Z,93.12
2018-10-21T20:59:38.673Z,90.32
2018-10-21T21:02:07.933Z,94.01
2018-10-21T21:04:36.678Z,91.77
2018-10-21T21:07:05.847Z,89.83
2018-10-21T21:09:35.415Z,91.58
2018-10-21T21:12:04.567Z,91.31
2018-10-21T21:14:33.473Z,91.99
2018-10-21T21:17:02.539Z,94.17
2018-10-21T21:19:31.108Z,91.09
2018-10-21T21:22:00.762Z,88.39
2018-10-21T21:24:29.345Z,87.71
2018-10-21T21:26:58.780Z,88.19
2018-10-21T21:29:27.297Z,88.89
2018-10-21T21:31:55.858Z,90.11
2018-10-21T21:34:24.398Z,90.24
2018-10-21T21:36:53.340Z,88.61
2018-10-21T21:39:21.901Z,89.69
2018-10-21T21:41:50.497Z,91.29
2018-10-21T21:44:19.329Z,92.33
2018-10-21T21:46:50.885Z,91.59
2018-10-21T21:49:19.469Z,89.94
2018-10-21T21:51:48.012Z,91.75
2018-10-21T21:54:16.670Z,92.81
2018-10-21T21:56:46.895Z,93.39
2018-10-21T21:59:15.665Z,93.83
2018-10-21T22:01:44.244Z,95.85
2018-10-21T22:04:12.841Z,95.06
2018-10-21T22:06:41.387Z,96.07
2018-10-21T22:09:12.072Z,94.85
2018-10-21T22:11:40.909Z,94.18
2018-10-21T22:14:10.278Z,92.13
2018-10-21T22:16:38.984Z,91.62
2018-10-21T22:19:08.370Z,90.52
2018-10-21T22:21:37.712Z,90.71
2018-10-21T22:24:07.048Z,89.54
2018-10-21T22:26:35.610Z,90.49
2018-10-21T22:29:04.155Z,92.82
2018-10-21T22:31:33.219Z,91.30
2018-10-21T22:34:02.191Z,89.56
2018-10-21T22:36:30.700Z,89.13
2018-10-21T22:38:59.241Z,91.21
2018-10-21T22:41:27.807Z,90.36
2018-10-21T22:43:56.323Z,90.96
2018-10-21T22:46:25.177Z,89.34
2018-10-21T22:48:53.735Z,90.29
2018-10-21T22:51:22.889Z,91.49
2018-10-21T22:53:51.389Z,90.76
2018-10-21T22:56:19.945Z,91.19
2018-10-21T22:58:48.464Z,90.16
2018-10-21T23:01:17.053Z,90.61
2018-10-21T23:03:45.572Z,88.69
2018-10-21T23:06:14.181Z,89.07
2018-10-21T23:08:42.672Z,88.98
2018-10-21T23:11:11.201Z,89.23
2018-10-21T23:13:39.764Z,89.03
2018-10-21T23:16:08.568Z,87.98
2018-10-21T23:18:37.168Z,88.89
2018-10-21T23:21:05.964Z,88.98
2018-10-21T23:23:34.524Z,91.19
2018-10-21T23:26:03.069Z,90.10
2018-10-21T23:28:31.668Z,90.80
2018-10-21T23:31:00.285Z,90.89
2018-10-21T23:33:28.831Z,94.05
2018-10-21T23:35:57.370Z,92.49
2018-10-21T23:38:25.941Z,91.93
2018-10-21T23:40:54.462Z,91.44
2018-10-21T23:43:23.000Z,91.46
2018-10-21T23:45:51.554Z,92.20
2018-10-21T23:48:20.548Z,91.35
2018-10-21T23:50:48.893Z,92.71
2018-10-21T23:53:17.432Z,91.39
2018-10-21T23:55:45.944Z,92.46
2018-10-21T23:58:14.547Z,92.89
